sensor_id;sensor_type;location;lat;lon;timestamp;pressure;altitude;pressure_sealevel;temperature;humidity
71643;BME280;59438;45.014;39.006;2023-05-11T00:00:33;101912.13;;;5.93;76.70
71643;BME280;59438;45.014;39.006;2023-05-11T00:03:00;101913.88;;;5.91;77.66
71643;BME280;59438;45.014;39.006;2023-05-11T00:05:27;101907.78;;;5.90;77.42
71643;BME280;59438;45.014;39.006;2023-05-11T00:07:54;101912.13;;;5.88;77.44
71643;BME280;59438;45.014;39.006;2023-05-11T00:10:20;101915.63;;;5.85;77.38
71643;BME280;59438;45.014;39.006;2023-05-11T00:12:47;101918.22;;;5.84;77.24
71643;BME280;59438;45.014;39.006;2023-05-11T00:15:13;101913.00;;;5.81;77.28
71643;BME280;59438;45.014;39.006;2023-05-11T00:17:39;101922.53;;;5.80;76.90
71643;BME280;59438;45.014;39.006;2023-05-11T00:20:07;101917.34;;;5.77;77.80
71643;BME280;59438;45.014;39.006;2023-05-11T00:22:35;101902.53;;;5.70;78.11
71643;BME280;59438;45.014;39.006;2023-05-11T00:25:01;101891.22;;;5.59;77.25
71643;BME280;59438;45.014;39.006;2023-05-11T00:27:27;101913.84;;;5.74;76.95
71643;BME280;59438;45.014;39.006;2023-05-11T00:29:54;101918.19;;;5.72;77.80
71643;BME280;59438;45.014;39.006;2023-05-11T00:32:20;101915.56;;;5.70;77.31
71643;BME280;59438;45.014;39.006;2023-05-11T00:34:46;101922.50;;;5.68;77.91
71643;BME280;59438;45.014;39.006;2023-05-11T00:37:13;101918.16;;;5.65;77.79
71643;BME280;59438;45.014;39.006;2023-05-11T00:39:40;101910.34;;;5.64;78.08
71643;BME280;59438;45.014;39.006;2023-05-11T00:42:07;101906.00;;;5.61;77.14
71643;BME280;59438;45.014;39.006;2023-05-11T00:44:33;101912.06;;;5.59;77.80
71643;BME280;59438;45.014;39.006;2023-05-11T00:46:59;101918.16;;;5.56;77.70
71643;BME280;59438;45.014;39.006;2023-05-11T00:49:26;101915.53;;;5.53;77.80
71643;BME280;59438;45.014;39.006;2023-05-11T00:51:52;101913.81;;;5.52;77.62
71643;BME280;59438;45.014;39.006;2023-05-11T00:54:19;101906.81;;;5.50;77.30
71643;BME280;59438;45.014;39.006;2023-05-11T00:56:47;101918.13;;;5.49;78.17
71643;BME280;59438;45.014;39.006;2023-05-11T00:59:13;101911.16;;;5.49;77.29
71643;BME280;59438;45.014;39.006;2023-05-11T01:01:40;101910.28;;;5.47;77.36
71643;BME280;59438;45.014;39.006;2023-05-11T01:04:06;101907.69;;;5.45;78.23
71643;BME280;59438;45.014;39.006;2023-05-11T01:06:38;101875.50;;;5.28;78.52
71643;BME280;59438;45.014;39.006;2023-05-11T01:09:10;101909.41;;;5.40;77.88
71643;BME280;59438;45.014;39.006;2023-05-11T01:11:42;101913.75;;;5.41;78.76
71643;BME280;59438;45.014;39.006;2023-05-11T01:14:16;101915.47;;;5.39;78.17
71643;BME280;59438;45.014;39.006;2023-05-11T01:16:48;101914.63;;;5.36;77.79
71643;BME280;59438;45.014;39.006;2023-05-11T01:19:20;101918.94;;;5.35;77.85
71643;BME280;59438;45.014;39.006;2023-05-11T01:21:49;101913.69;;;5.29;78.59
71643;BME280;59438;45.014;39.006;2023-05-11T01:24:36;101918.06;;;5.32;79.44
71643;BME280;59438;45.014;39.006;2023-05-11T01:27:30;101917.19;;;5.31;79.32
71643;BME280;59438;45.014;39.006;2023-05-11T01:30:25;101903.28;;;5.26;79.36
71643;BME280;59438;45.014;39.006;2023-05-11T01:32:54;101907.63;;;5.25;78.32
71643;BME280;59438;45.014;39.006;2023-05-11T01:35:24;101911.06;;;5.24;77.98
71643;BME280;59438;45.014;39.006;2023-05-11T01:37:53;101908.50;;;5.23;78.27
71643;BME280;59438;45.014;39.006;2023-05-11T01:40:23;101897.16;;;5.15;78.41
71643;BME280;59438;45.014;39.006;2023-05-11T01:43:00;101909.31;;;5.20;78.65
71643;BME280;59438;45.014;39.006;2023-05-11T01:45:31;101899.75;;;5.18;78.14
71643;BME280;59438;45.014;39.006;2023-05-11T01:48:01;101890.22;;;5.15;78.40
71643;BME280;59438;45.014;39.006;2023-05-11T01:50:29;101895.41;;;5.18;78.20
71643;BME280;59438;45.014;39.006;2023-05-11T01:52:57;101899.75;;;5.18;78.98
71643;BME280;59438;45.014;39.006;2023-05-11T01:55:25;101882.38;;;5.11;78.82
71643;BME280;59438;45.014;39.006;2023-05-11T01:57:53;101892.84;;;5.17;79.37
71643;BME280;59438;45.014;39.006;2023-05-11T02:00:21;101900.63;;;5.15;78.56
71643;BME280;59438;45.014;39.006;2023-05-11T02:02:51;101900.63;;;5.15;78.69
71643;BME280;59438;45.014;39.006;2023-05-11T02:05:21;101898.03;;;5.17;78.89
71643;BME280;59438;45.014;39.006;2023-05-11T02:07:48;101899.75;;;5.18;78.74
71643;BME280;59438;45.014;39.006;2023-05-11T02:10:16;101899.75;;;5.18;78.94
71643;BME280;59438;45.014;39.006;2023-05-11T02:12:44;101895.41;;;5.14;78.63
71643;BME280;59438;45.014;39.006;2023-05-11T02:15:11;101896.28;;;5.16;78.83
71643;BME280;59438;45.014;39.006;2023-05-11T02:17:39;101871.94;;;5.03;78.80
71643;BME280;59438;45.014;39.006;2023-05-11T02:20:09;101885.84;;;5.11;79.03
71643;BME280;59438;45.014;39.006;2023-05-11T02:22:36;101893.69;;;5.16;79.24
71643;BME280;59438;45.014;39.006;2023-05-11T02:25:04;101894.53;;;5.16;79.18
71643;BME280;59438;45.014;39.006;2023-05-11T02:27:31;101900.66;;;5.17;79.21
71643;BME280;59438;45.014;39.006;2023-05-11T02:29:58;101900.66;;;5.17;79.05
71643;BME280;59438;45.014;39.006;2023-05-11T02:32:25;101903.25;;;5.17;79.37
71643;BME280;59438;45.014;39.006;2023-05-11T02:34:57;101906.72;;;5.20;79.49
71643;BME280;59438;45.014;39.006;2023-05-11T02:37:27;101910.22;;;5.21;79.53
71643;BME280;59438;45.014;39.006;2023-05-11T02:39:58;101902.38;;;5.19;78.85
71643;BME280;59438;45.014;39.006;2023-05-11T02:42:27;101905.84;;;5.18;78.98
71643;BME280;59438;45.014;39.006;2023-05-11T02:44:58;101911.94;;;5.20;79.19
71643;BME280;59438;45.014;39.006;2023-05-11T02:47:27;101914.50;;;5.16;79.23
71643;BME280;59438;45.014;39.006;2023-05-11T02:49:56;101925.84;;;5.21;78.62
71643;BME280;59438;45.014;39.006;2023-05-11T02:52:26;101897.97;;;5.04;78.79
71643;BME280;59438;45.014;39.006;2023-05-11T02:54:53;101924.94;;;5.20;79.21
71643;BME280;59438;45.014;39.006;2023-05-11T02:57:20;101927.56;;;5.22;78.60
71643;BME280;59438;45.014;39.006;2023-05-11T02:59:46;101919.78;;;5.23;79.45
71643;BME280;59438;45.014;39.006;2023-05-11T03:02:13;101934.53;;;5.26;79.35
71643;BME280;59438;45.014;39.006;2023-05-11T03:04:39;101923.25;;;5.24;78.75
71643;BME280;59438;45.014;39.006;2023-05-11T03:07:06;101937.16;;;5.32;79.57
71643;BME280;59438;45.014;39.006;2023-05-11T03:09:34;101931.97;;;5.37;79.34
71643;BME280;59438;45.014;39.006;2023-05-11T03:12:01;101944.16;;;5.41;79.46
71643;BME280;59438;45.014;39.006;2023-05-11T03:14:29;101943.28;;;5.40;79.43
71643;BME280;59438;45.014;39.006;2023-05-11T03:16:57;101947.66;;;5.49;79.43
71643;BME280;59438;45.014;39.006;2023-05-11T03:19:25;101951.16;;;5.54;79.33
71643;BME280;59438;45.014;39.006;2023-05-11T03:21:53;101949.41;;;5.58;79.21
71643;BME280;59438;45.014;39.006;2023-05-11T03:24:21;101948.56;;;5.62;79.49
71643;BME280;59438;45.014;39.006;2023-05-11T03:26:50;101952.06;;;5.67;79.33
71643;BME280;59438;45.014;39.006;2023-05-11T03:29:18;101959.91;;;5.73;79.98
71643;BME280;59438;45.014;39.006;2023-05-11T03:31:45;101955.56;;;5.78;80.16
71643;BME280;59438;45.014;39.006;2023-05-11T03:34:11;101951.25;;;5.83;80.33
71643;BME280;59438;45.014;39.006;2023-05-11T03:36:39;101953.84;;;5.86;80.40
71643;BME280;59438;45.014;39.006;2023-05-11T03:39:07;101952.16;;;5.95;80.04
71643;BME280;59438;45.014;39.006;2023-05-11T03:41:35;101953.06;;;6.01;79.96
71643;BME280;59438;45.014;39.006;2023-05-11T03:44:07;101947.88;;;6.08;79.87
71643;BME280;59438;45.014;39.006;2023-05-11T03:46:37;101953.94;;;6.08;79.45
71643;BME280;59438;45.014;39.006;2023-05-11T03:49:04;101959.16;;;6.17;79.32
71643;BME280;59438;45.014;39.006;2023-05-11T03:51:31;101956.56;;;6.25;79.38
71643;BME280;59438;45.014;39.006;2023-05-11T03:53:57;101953.94;;;6.30;79.29
71643;BME280;59438;45.014;39.006;2023-05-11T03:56:24;101959.19;;;6.36;80.01
71643;BME280;59438;45.014;39.006;2023-05-11T03:58:51;101951.34;;;6.36;80.13
71643;BME280;59438;45.014;39.006;2023-05-11T04:01:19;101965.28;;;6.45;79.24
71643;BME280;59438;45.014;39.006;2023-05-11T04:03:47;101964.41;;;6.54;79.29
71643;BME280;59438;45.014;39.006;2023-05-11T04:06:13;101969.59;;;6.59;79.39
71643;BME280;59438;45.014;39.006;2023-05-11T04:08:40;101964.38;;;6.65;79.82
71643;BME280;59438;45.014;39.006;2023-05-11T04:11:06;101967.88;;;6.72;80.05
71643;BME280;59438;45.014;39.006;2023-05-11T04:13:33;101944.38;;;6.65;80.11
71643;BME280;59438;45.014;39.006;2023-05-11T04:15:59;101966.97;;;6.83;79.37
71643;BME280;59438;45.014;39.006;2023-05-11T04:18:27;101969.59;;;6.91;79.30
71643;BME280;59438;45.014;39.006;2023-05-11T04:20:54;101968.72;;;6.98;79.66
71643;BME280;59438;45.014;39.006;2023-05-11T04:23:20;101963.47;;;7.06;79.49
71643;BME280;59438;45.014;39.006;2023-05-11T04:25:51;101964.31;;;7.14;79.42
71643;BME280;59438;45.014;39.006;2023-05-11T04:28:17;101964.28;;;7.22;79.71
71643;BME280;59438;45.014;39.006;2023-05-11T04:30:43;101960.81;;;7.29;79.56
71643;BME280;59438;45.014;39.006;2023-05-11T04:33:10;101964.22;;;7.39;78.81
71643;BME280;59438;45.014;39.006;2023-05-11T04:35:39;101960.72;;;7.47;79.56
71643;BME280;59438;45.014;39.006;2023-05-11T04:38:06;101961.56;;;7.56;78.92
71643;BME280;59438;45.014;39.006;2023-05-11T04:40:34;101951.09;;;7.62;79.02
71643;BME280;59438;45.014;39.006;2023-05-11T04:43:01;101963.25;;;7.72;78.43
71643;BME280;59438;45.014;39.006;2023-05-11T04:45:27;101967.53;;;7.81;78.17
71643;BME280;59438;45.014;39.006;2023-05-11T04:47:53;101970.94;;;7.91;78.20
71643;BME280;59438;45.014;39.006;2023-05-11T04:50:20;101962.22;;;7.95;78.10
71643;BME280;59438;45.014;39.006;2023-05-11T04:52:48;101944.75;;;7.98;77.90
71643;BME280;59438;45.014;39.006;2023-05-11T04:55:14;101966.44;;;8.19;77.84
71643;BME280;59438;45.014;39.006;2023-05-11T04:57:40;101968.09;;;8.31;77.96
71643;BME280;59438;45.014;39.006;2023-05-11T05:00:08;101960.19;;;8.41;77.80
71643;BME280;59438;45.014;39.006;2023-05-11T05:02:34;101960.09;;;8.52;77.37
71643;BME280;59438;45.014;39.006;2023-05-11T05:05:00;101961.75;;;8.62;77.40
71643;BME280;59438;45.014;39.006;2023-05-11T05:07:27;101954.69;;;8.74;76.68
71643;BME280;59438;45.014;39.006;2023-05-11T05:09:55;101958.03;;;8.85;76.63
71643;BME280;59438;45.014;39.006;2023-05-11T05:12:21;101957.97;;;8.96;76.89
71643;BME280;59438;45.014;39.006;2023-05-11T05:14:47;101945.59;;;9.05;76.34
71643;BME280;59438;45.014;39.006;2023-05-11T05:17:13;101953.25;;;9.27;76.44
71643;BME280;59438;45.014;39.006;2023-05-11T05:19:40;101963.97;;;9.78;76.43
71643;BME280;59438;45.014;39.006;2023-05-11T05:22:06;101973.84;;;10.77;75.90
71643;BME280;59438;45.014;39.006;2023-05-11T05:24:33;101977.69;;;11.93;74.10
71643;BME280;59438;45.014;39.006;2023-05-11T05:27:01;101969.56;;;13.08;70.82
71643;BME280;59438;45.014;39.006;2023-05-11T05:29:27;101981.44;;;14.14;69.13
71643;BME280;59438;45.014;39.006;2023-05-11T05:31:53;101974.03;;;15.05;67.19
71643;BME280;59438;45.014;39.006;2023-05-11T05:34:20;101980.75;;;15.86;65.28
71643;BME280;59438;45.014;39.006;2023-05-11T05:36:46;101979.63;;;16.58;62.89
71643;BME280;59438;45.014;39.006;2023-05-11T05:39:12;101984.16;;;17.18;61.21
71643;BME280;59438;45.014;39.006;2023-05-11T05:41:39;101973.28;;;17.62;60.33
71643;BME280;59438;45.014;39.006;2023-05-11T05:44:06;101972.97;;;17.88;57.25
71643;BME280;59438;45.014;39.006;2023-05-11T05:46:33;101976.34;;;17.92;58.69
71643;BME280;59438;45.014;39.006;2023-05-11T05:48:59;101977.97;;;17.57;58.23
71643;BME280;59438;45.014;39.006;2023-05-11T05:51:25;101977.31;;;17.12;58.88
71643;BME280;59438;45.014;39.006;2023-05-11T05:53:52;101972.06;;;16.69;59.34
71643;BME280;59438;45.014;39.006;2023-05-11T05:56:18;101963.41;;;16.44;58.91
71643;BME280;59438;45.014;39.006;2023-05-11T05:58:44;101976.50;;;16.04;59.13
71643;BME280;59438;45.014;39.006;2023-05-11T06:01:12;101963.69;;;15.46;58.08
71643;BME280;59438;45.014;39.006;2023-05-11T06:03:39;101974.03;;;15.05;60.07
71643;BME280;59438;45.014;39.006;2023-05-11T06:06:05;101967.97;;;14.77;60.22
71643;BME280;59438;45.014;39.006;2023-05-11T06:08:32;101971.00;;;14.91;60.77
71643;BME280;59438;45.014;39.006;2023-05-11T06:10:58;101958.00;;;15.08;60.17
71643;BME280;59438;45.014;39.006;2023-05-11T06:13:25;101963.91;;;15.17;60.09
71643;BME280;59438;45.014;39.006;2023-05-11T06:15:51;101975.91;;;15.02;59.46
71643;BME280;59438;45.014;39.006;2023-05-11T06:18:19;101971.63;;;14.73;58.01
71643;BME280;59438;45.014;39.006;2023-05-11T06:20:45;101974.66;;;14.34;59.41
71643;BME280;59438;45.014;39.006;2023-05-11T06:23:11;101973.19;;;13.97;60.40
71643;BME280;59438;45.014;39.006;2023-05-11T06:25:38;101972.44;;;13.63;60.72
71643;BME280;59438;45.014;39.006;2023-05-11T06:28:04;101967.16;;;13.32;61.48
71643;BME280;59438;45.014;39.006;2023-05-11T06:30:30;101965.00;;;13.14;61.71
71643;BME280;59438;45.014;39.006;2023-05-11T06:32:57;101967.84;;;13.07;61.65
71643;BME280;59438;45.014;39.006;2023-05-11T06:35:25;101973.00;;;13.10;60.31
71643;BME280;59438;45.014;39.006;2023-05-11T06:37:51;101957.88;;;13.17;61.77
71643;BME280;59438;45.014;39.006;2023-05-11T06:40:17;101967.25;;;13.27;62.10
71643;BME280;59438;45.014;39.006;2023-05-11T06:42:44;101964.47;;;13.34;61.30
71643;BME280;59438;45.014;39.006;2023-05-11T06:45:10;101967.25;;;13.29;60.95
71643;BME280;59438;45.014;39.006;2023-05-11T06:47:36;101957.56;;;13.28;60.88
71643;BME280;59438;45.014;39.006;2023-05-11T06:50:03;101962.94;;;13.25;60.45
71643;BME280;59438;45.014;39.006;2023-05-11T06:52:31;101963.91;;;13.22;60.14
71643;BME280;59438;45.014;39.006;2023-05-11T06:54:58;101970.72;;;13.31;60.72
71643;BME280;59438;45.014;39.006;2023-05-11T06:57:24;101965.31;;;13.36;60.71
71643;BME280;59438;45.014;39.006;2023-05-11T06:59:50;101972.38;;;13.35;60.33
71643;BME280;59438;45.014;39.006;2023-05-11T07:02:16;101974.97;;;13.37;60.20
71643;BME280;59438;45.014;39.006;2023-05-11T07:04:43;101975.00;;;13.35;59.72
71643;BME280;59438;45.014;39.006;2023-05-11T07:07:09;101974.06;;;13.36;59.82
71643;BME280;59438;45.014;39.006;2023-05-11T07:09:37;101969.63;;;13.38;59.37
71643;BME280;59438;45.014;39.006;2023-05-11T07:12:04;101977.31;;;13.46;59.87
71643;BME280;59438;45.014;39.006;2023-05-11T07:14:30;101979.91;;;13.49;59.41
71643;BME280;59438;45.014;39.006;2023-05-11T07:16:57;101956.19;;;13.47;59.20
71643;BME280;59438;45.014;39.006;2023-05-11T07:19:23;101973.19;;;13.67;58.58
71643;BME280;59438;45.014;39.006;2023-05-11T07:21:49;101978.25;;;13.75;58.33
71643;BME280;59438;45.014;39.006;2023-05-11T07:24:16;101973.63;;;13.81;58.28
71643;BME280;59438;45.014;39.006;2023-05-11T07:26:43;101969.00;;;13.89;56.55
71643;BME280;59438;45.014;39.006;2023-05-11T07:29:10;101972.41;;;13.93;57.53
71643;BME280;59438;45.014;39.006;2023-05-11T07:31:36;101975.09;;;13.91;57.01
71643;BME280;59438;45.014;39.006;2023-05-11T07:34:02;101974.22;;;13.91;58.01
71643;BME280;59438;45.014;39.006;2023-05-11T07:36:29;101974.28;;;13.89;57.64
71643;BME280;59438;45.014;39.006;2023-05-11T07:38:55;101976.00;;;13.90;57.23
71643;BME280;59438;45.014;39.006;2023-05-11T07:41:21;101964.47;;;13.93;57.49
71643;BME280;59438;45.014;39.006;2023-05-11T07:43:49;101967.78;;;14.00;56.52
71643;BME280;59438;45.014;39.006;2023-05-11T07:46:16;101970.25;;;14.06;57.42
71643;BME280;59438;45.014;39.006;2023-05-11T07:48:42;101976.34;;;14.08;57.07
71643;BME280;59438;45.014;39.006;2023-05-11T07:51:09;101970.25;;;14.06;56.45
71643;BME280;59438;45.014;39.006;2023-05-11T07:53:35;101966.78;;;14.04;56.81
71643;BME280;59438;45.014;39.006;2023-05-11T07:56:02;101968.38;;;14.09;56.37
71643;BME280;59438;45.014;39.006;2023-05-11T07:58:28;101948.16;;;14.08;56.40
71643;BME280;59438;45.014;39.006;2023-05-11T08:00:56;101965.19;;;14.26;55.26
71643;BME280;59438;45.014;39.006;2023-05-11T08:03:23;101966.78;;;14.32;56.35
71643;BME280;59438;45.014;39.006;2023-05-11T08:05:49;101970.34;;;14.31;56.03
71643;BME280;59438;45.014;39.006;2023-05-11T08:08:16;101967.75;;;14.29;56.17
71643;BME280;59438;45.014;39.006;2023-05-11T08:10:42;101962.47;;;14.29;56.42
71643;BME280;59438;45.014;39.006;2023-05-11T08:13:08;101948.50;;;14.24;56.18
71643;BME280;59438;45.014;39.006;2023-05-11T08:15:36;101976.00;;;14.45;56.36
71643;BME280;59438;45.014;39.006;2023-05-11T08:18:04;101964.34;;;14.52;54.61
71643;BME280;59438;45.014;39.006;2023-05-11T08:20:30;101959.84;;;14.56;55.53
71643;BME280;59438;45.014;39.006;2023-05-11T08:22:58;101954.41;;;14.61;55.58
71643;BME280;59438;45.014;39.006;2023-05-11T08:25:24;101948.03;;;14.66;55.65
71643;BME280;59438;45.014;39.006;2023-05-11T08:27:50;101963.84;;;14.68;55.33
71643;BME280;59438;45.014;39.006;2023-05-11T08:30:17;101966.63;;;14.63;55.45
71643;BME280;59438;45.014;39.006;2023-05-11T08:32:43;101955.25;;;14.61;54.91
71643;BME280;59438;45.014;39.006;2023-05-11T08:35:11;101961.41;;;14.62;54.24
71643;BME280;59438;45.014;39.006;2023-05-11T08:37:38;101952.44;;;14.66;55.44
71643;BME280;59438;45.014;39.006;2023-05-11T08:40:05;101938.53;;;14.61;54.50
71643;BME280;59438;45.014;39.006;2023-05-11T08:42:32;101942.31;;;14.79;54.21
71643;BME280;59438;45.014;39.006;2023-05-11T08:44:59;101945.66;;;14.84;54.89
71643;BME280;59438;45.014;39.006;2023-05-11T08:47:27;101949.16;;;14.84;53.81
71643;BME280;59438;45.014;39.006;2023-05-11T08:49:54;101959.00;;;14.81;54.88
71643;BME280;59438;45.014;39.006;2023-05-11T08:52:21;101954.66;;;14.78;54.05
71643;BME280;59438;45.014;39.006;2023-05-11T08:54:48;101950.34;;;14.76;55.02
71643;BME280;59438;45.014;39.006;2023-05-11T08:57:15;101960.16;;;14.72;54.36
71643;BME280;59438;45.014;39.006;2023-05-11T08:59:44;101957.59;;;14.70;54.09
71643;BME280;59438;45.014;39.006;2023-05-11T09:02:15;101941.00;;;14.65;54.42
71643;BME280;59438;45.014;39.006;2023-05-11T09:04:43;101941.66;;;14.72;53.84
71643;BME280;59438;45.014;39.006;2023-05-11T09:07:10;101944.84;;;14.82;54.01
71643;BME280;59438;45.014;39.006;2023-05-11T09:09:38;101941.69;;;14.97;54.04
71643;BME280;59438;45.014;39.006;2023-05-11T09:12:07;101940.25;;;15.12;53.74
71643;BME280;59438;45.014;39.006;2023-05-11T09:14:33;101937.34;;;15.20;54.58
71643;BME280;59438;45.014;39.006;2023-05-11T09:16:59;101930.44;;;15.16;53.70
71643;BME280;59438;45.014;39.006;2023-05-11T09:19:26;101953.25;;;15.18;53.53
71643;BME280;59438;45.014;39.006;2023-05-11T09:21:53;101926.75;;;14.95;53.69
71643;BME280;59438;45.014;39.006;2023-05-11T09:24:20;101949.72;;;14.94;53.59
71643;BME280;59438;45.014;39.006;2023-05-11T09:26:48;101938.44;;;14.89;53.11
71643;BME280;59438;45.014;39.006;2023-05-11T09:29:18;101925.66;;;14.77;51.89
71643;BME280;59438;45.014;39.006;2023-05-11T09:31:45;101944.84;;;14.82;53.49
71643;BME280;59438;45.014;39.006;2023-05-11T09:34:14;101947.53;;;14.80;53.58
71643;BME280;59438;45.014;39.006;2023-05-11T09:36:40;101948.53;;;14.78;53.94
71643;BME280;59438;45.014;39.006;2023-05-11T09:39:07;101947.75;;;14.74;54.47
71643;BME280;59438;45.014;39.006;2023-05-11T09:41:34;101948.72;;;14.71;54.23
71643;BME280;59438;45.014;39.006;2023-05-11T09:44:09;101955.84;;;14.69;52.98
71643;BME280;59438;45.014;39.006;2023-05-11T09:46:37;101951.38;;;14.71;54.28
71643;BME280;59438;45.014;39.006;2023-05-11T09:49:04;101946.03;;;14.73;53.79
71643;BME280;59438;45.014;39.006;2023-05-11T09:51:32;101954.56;;;14.81;53.82
71643;BME280;59438;45.014;39.006;2023-05-11T09:53:59;101947.19;;;14.91;53.74
71643;BME280;59438;45.014;39.006;2023-05-11T09:56:43;101932.00;;;14.96;53.63
71643;BME280;59438;45.014;39.006;2023-05-11T09:59:13;101924.78;;;15.01;52.21
71643;BME280;59438;45.014;39.006;2023-05-11T10:01:40;101948.66;;;15.23;53.08
71643;BME280;59438;45.014;39.006;2023-05-11T10:04:06;101928.34;;;15.24;53.10
71643;BME280;59438;45.014;39.006;2023-05-11T10:06:49;101935.47;;;15.45;50.81
71643;BME280;59438;45.014;39.006;2023-05-11T10:09:18;101936.84;;;15.56;51.62
71643;BME280;59438;45.014;39.006;2023-05-11T10:11:48;101932.03;;;15.67;51.75
71643;BME280;59438;45.014;39.006;2023-05-11T10:14:18;101941.59;;;15.71;50.68
71643;BME280;59438;45.014;39.006;2023-05-11T10:16:45;101946.59;;;15.79;51.65
71643;BME280;59438;45.014;39.006;2023-05-11T10:19:12;101951.03;;;15.78;51.78
71643;BME280;59438;45.014;39.006;2023-05-11T10:21:40;101950.38;;;15.73;51.87
71643;BME280;59438;45.014;39.006;2023-05-11T10:24:07;101938.53;;;15.58;51.05
71643;BME280;59438;45.014;39.006;2023-05-11T10:26:33;101951.31;;;15.47;51.53
71643;BME280;59438;45.014;39.006;2023-05-11T10:29:01;101958.88;;;15.34;51.64
71643;BME280;59438;45.014;39.006;2023-05-11T10:31:29;101954.94;;;15.21;50.78
71643;BME280;59438;45.014;39.006;2023-05-11T10:33:57;101960.63;;;15.10;52.42
71643;BME280;59438;45.014;39.006;2023-05-11T10:36:23;101956.53;;;15.01;52.25
71643;BME280;59438;45.014;39.006;2023-05-11T10:38:50;101954.91;;;14.97;52.59
71643;BME280;59438;45.014;39.006;2023-05-11T10:41:40;101942.03;;;14.86;51.10
71643;BME280;59438;45.014;39.006;2023-05-11T10:44:39;101933.03;;;14.92;51.98
71643;BME280;59438;45.014;39.006;2023-05-11T10:47:31;101949.63;;;15.21;51.90
71643;BME280;59438;45.014;39.006;2023-05-11T10:50:22;101936.88;;;15.32;51.84
71643;BME280;59438;45.014;39.006;2023-05-11T10:53:10;101942.06;;;15.59;50.70
71643;BME280;59438;45.014;39.006;2023-05-11T10:56:01;101935.41;;;15.70;50.65
71643;BME280;59438;45.014;39.006;2023-05-11T10:58:42;101956.94;;;15.85;49.81
71643;BME280;59438;45.014;39.006;2023-05-11T11:01:36;101953.06;;;15.94;50.05
71643;BME280;59438;45.014;39.006;2023-05-11T11:04:04;101954.63;;;15.99;49.63
71643;BME280;59438;45.014;39.006;2023-05-11T11:06:32;101951.66;;;16.07;50.31
71643;BME280;59438;45.014;39.006;2023-05-11T11:09:00;101928.06;;;16.01;48.97
71643;BME280;59438;45.014;39.006;2023-05-11T11:11:28;101949.19;;;16.24;48.81
71643;BME280;59438;45.014;39.006;2023-05-11T11:13:58;101943.56;;;16.32;48.49
71643;BME280;59438;45.014;39.006;2023-05-11T11:16:25;101938.06;;;16.37;49.85
71643;BME280;59438;45.014;39.006;2023-05-11T11:18:52;101942.06;;;16.47;49.53
71643;BME280;59438;45.014;39.006;2023-05-11T11:21:40;101940.88;;;16.54;47.32
71643;BME280;59438;45.014;39.006;2023-05-11T11:24:07;101937.81;;;16.63;49.41
71643;BME280;59438;45.014;39.006;2023-05-11T11:26:54;101941.97;;;16.70;47.91
71643;BME280;59438;45.014;39.006;2023-05-11T11:29:21;101947.31;;;16.69;48.53
71643;BME280;59438;45.014;39.006;2023-05-11T11:31:47;101946.84;;;16.59;48.63
71643;BME280;59438;45.014;39.006;2023-05-11T11:34:33;101934.03;;;16.48;48.46
71643;BME280;59438;45.014;39.006;2023-05-11T11:37:03;101940.34;;;16.46;46.92
71643;BME280;59438;45.014;39.006;2023-05-11T11:39:46;101946.56;;;16.45;47.45
71643;BME280;59438;45.014;39.006;2023-05-11T11:42:14;101936.03;;;16.43;46.77
71643;BME280;59438;45.014;39.006;2023-05-11T11:44:42;101919.44;;;16.38;46.28
71643;BME280;59438;45.014;39.006;2023-05-11T11:47:12;101943.66;;;16.51;45.57
71643;BME280;59438;45.014;39.006;2023-05-11T11:49:39;101927.56;;;16.56;49.10
71643;BME280;59438;45.014;39.006;2023-05-11T11:52:10;101921.59;;;16.50;46.76
71643;BME280;59438;45.014;39.006;2023-05-11T11:54:36;101918.59;;;16.58;48.13
71643;BME280;59438;45.014;39.006;2023-05-11T11:57:03;101929.06;;;16.61;47.07
71643;BME280;59438;45.014;39.006;2023-05-11T11:59:29;101937.03;;;16.61;47.00
71643;BME280;59438;45.014;39.006;2023-05-11T12:02:13;101916.75;;;16.60;45.44
71643;BME280;59438;45.014;39.006;2023-05-11T12:04:51;101910.06;;;16.51;46.32
71643;BME280;59438;45.014;39.006;2023-05-11T12:07:24;101896.00;;;16.49;45.98
71643;BME280;59438;45.014;39.006;2023-05-11T12:09:50;101913.78;;;16.68;48.07
71643;BME280;59438;45.014;39.006;2023-05-11T12:12:18;101899.63;;;16.67;47.02
71643;BME280;59438;45.014;39.006;2023-05-11T12:14:45;101908.75;;;16.82;47.65
71643;BME280;59438;45.014;39.006;2023-05-11T12:17:12;101919.75;;;16.94;47.63
71643;BME280;59438;45.014;39.006;2023-05-11T12:19:40;101909.88;;;16.97;46.68
71643;BME280;59438;45.014;39.006;2023-05-11T12:22:06;101904.56;;;16.97;46.76
71643;BME280;59438;45.014;39.006;2023-05-11T12:24:34;101908.00;;;16.99;45.01
71643;BME280;59438;45.014;39.006;2023-05-11T12:27:02;101911.28;;;17.04;45.91
71643;BME280;59438;45.014;39.006;2023-05-11T12:29:29;101907.63;;;17.07;46.52
71643;BME280;59438;45.014;39.006;2023-05-11T12:31:55;101916.47;;;17.07;46.37
71643;BME280;59438;45.014;39.006;2023-05-11T12:34:22;101915.47;;;17.10;46.18
71643;BME280;59438;45.014;39.006;2023-05-11T12:36:50;101911.28;;;17.04;46.25
71643;BME280;59438;45.014;39.006;2023-05-11T12:39:17;101915.03;;;17.00;45.89
71643;BME280;59438;45.014;39.006;2023-05-11T12:41:46;101918.91;;;16.93;45.44
71643;BME280;59438;45.014;39.006;2023-05-11T12:44:14;101914.72;;;16.87;45.45
71643;BME280;59438;45.014;39.006;2023-05-11T12:46:40;101917.56;;;16.83;46.33
71643;BME280;59438;45.014;39.006;2023-05-11T12:49:08;101904.06;;;16.67;44.89
71643;BME280;59438;45.014;39.006;2023-05-11T12:51:45;101923.19;;;16.75;44.40